createdAt,value
2022-10-10T00:02:23.619Z,11.98
2022-10-10T00:04:52.965Z,12.25
2022-10-10T00:07:20.381Z,13.20
2022-10-10T00:09:47.413Z,14.65
2022-10-10T00:12:14.054Z,14.77
2022-10-10T00:14:40.756Z,13.10
2022-10-10T00:17:07.406Z,14.80
2022-10-10T00:19:34.006Z,15.32
2022-10-10T00:22:00.739Z,14.02
2022-10-10T00:24:27.422Z,13.75
2022-10-10T00:26:54.125Z,14.77
2022-10-10T00:29:20.878Z,15.15
2022-10-10T00:31:47.478Z,15.65
2022-10-10T00:34:14.160Z,16.65
2022-10-10T00:36:40.786Z,17.02
2022-10-10T00:39:07.406Z,15.15
2022-10-10T00:41:34.088Z,17.15
2022-10-10T00:44:02.629Z,15.27
2022-10-10T00:46:29.276Z,15.40
2022-10-10T00:48:55.912Z,14.25
2022-10-10T00:51:22.556Z,18.05
2022-10-10T00:53:51.610Z,15.77
2022-10-10T00:56:20.404Z,17.35
2022-10-10T00:58:48.565Z,16.00
2022-10-10T01:01:15.341Z,15.60
2022-10-10T01:03:42.007Z,17.25
2022-10-10T01:06:08.703Z,16.42
2022-10-10T01:08:35.390Z,17.27
2022-10-10T01:11:25.574Z,17.85
2022-10-10T01:14:16.626Z,16.95
2022-10-10T01:17:03.452Z,16.90
2022-10-10T01:19:44.365Z,18.17
2022-10-10T01:22:32.842Z,18.00
2022-10-10T01:25:39.312Z,16.15
2022-10-10T01:28:31.136Z,14.25
2022-10-10T01:30:57.752Z,16.30
2022-10-10T01:33:30.204Z,15.07
2022-10-10T01:38:38.984Z,16.70
2022-10-10T01:41:10.528Z,15.38
2022-10-10T01:43:37.301Z,16.00
2022-10-10T01:46:13.567Z,15.55
2022-10-10T01:48:40.259Z,15.80
2022-10-10T01:54:11.531Z,12.95
2022-10-10T01:57:02.609Z,14.15
2022-10-10T02:00:00.565Z,14.90
2022-10-10T02:03:06.992Z,16.42
2022-10-10T02:05:44.172Z,14.60
2022-10-10T02:08:34.793Z,17.25
2022-10-10T02:11:05.771Z,15.68
2022-10-10T02:13:36.724Z,17.75
2022-10-10T02:16:03.352Z,16.05
2022-10-10T02:18:31.238Z,15.70
2022-10-10T02:20:57.837Z,15.20
2022-10-10T02:23:24.504Z,15.73
2022-10-10T02:25:52.882Z,18.00
2022-10-10T02:31:31.507Z,16.13
2022-10-10T02:34:04.833Z,17.95
2022-10-10T02:36:31.431Z,15.85
2022-10-10T02:38:57.992Z,18.73
2022-10-10T02:41:24.629Z,17.35
2022-10-10T02:43:51.426Z,15.45
2022-10-10T02:46:18.085Z,17.38
2022-10-10T02:48:44.702Z,16.05
2022-10-10T02:51:11.290Z,17.13
2022-10-10T02:53:38.066Z,16.67
2022-10-10T02:56:05.036Z,16.02
2022-10-10T02:58:31.606Z,16.20
2022-10-10T03:00:58.228Z,15.30
2022-10-10T03:03:25.670Z,15.55
2022-10-10T03:05:52.271Z,14.95
2022-10-10T03:08:18.822Z,12.68
2022-10-10T03:11:01.100Z,13.20
2022-10-10T03:13:27.792Z,12.57
2022-10-10T03:15:54.459Z,13.60
2022-10-10T03:18:21.056Z,16.20
2022-10-10T03:20:50.976Z,16.58
2022-10-10T03:23:17.560Z,14.35
2022-10-10T03:25:44.176Z,14.88
2022-10-10T03:28:11.244Z,15.63
2022-10-10T03:30:38.648Z,16.45
2022-10-10T03:33:05.621Z,17.02
2022-10-10T03:35:32.274Z,17.05
2022-10-10T03:37:58.978Z,20.15
2022-10-10T03:40:25.811Z,17.55
2022-10-10T03:42:53.072Z,18.13
2022-10-10T03:45:20.025Z,20.05
2022-10-10T03:47:46.626Z,18.90
2022-10-10T03:50:13.215Z,18.63
2022-10-10T03:52:39.836Z,16.33
2022-10-10T03:55:06.847Z,16.05
2022-10-10T03:57:33.520Z,14.95
2022-10-10T04:00:00.138Z,14.40
2022-10-10T04:02:26.793Z,14.43
2022-10-10T04:04:53.392Z,14.27
2022-10-10T04:07:20.326Z,14.07
2022-10-10T04:09:46.921Z,14.43
2022-10-10T04:12:13.518Z,14.43
2022-10-10T04:14:40.112Z,13.45
2022-10-10T04:17:06.735Z,14.48
2022-10-10T04:19:33.377Z,13.40
2022-10-10T04:21:59.957Z,13.52
2022-10-10T04:24:26.696Z,14.40
2022-10-10T04:26:53.456Z,12.43
2022-10-10T04:29:20.044Z,13.15
2022-10-10T04:31:46.665Z,12.88
2022-10-10T04:34:13.264Z,12.68
2022-10-10T04:36:39.869Z,11.43
2022-10-10T04:39:06.488Z,12.38
2022-10-10T04:41:33.121Z,13.13
2022-10-10T04:43:59.762Z,12.43
2022-10-10T04:46:26.431Z,11.00
2022-10-10T04:48:53.016Z,11.27
2022-10-10T04:51:19.666Z,10.68
2022-10-10T04:53:50.291Z,10.27
2022-10-10T04:56:17.134Z,8.98
2022-10-10T04:58:43.703Z,10.23
2022-10-10T05:01:10.356Z,10.65
2022-10-10T05:03:36.948Z,10.93
2022-10-10T05:06:03.624Z,10.93
2022-10-10T05:08:30.468Z,11.45
2022-10-10T05:10:57.075Z,10.68
2022-10-10T05:13:23.650Z,9.95
2022-10-10T05:15:51.143Z,9.20
2022-10-10T05:18:18.119Z,8.52
2022-10-10T05:20:47.539Z,9.00
2022-10-10T05:23:14.843Z,9.25
2022-10-10T05:25:44.923Z,8.65
2022-10-10T05:28:12.120Z,7.78
2022-10-10T05:30:38.792Z,9.20
2022-10-10T05:33:05.475Z,9.18
2022-10-10T05:35:32.113Z,9.18
2022-10-10T05:37:58.755Z,8.85
2022-10-10T05:40:25.343Z,9.85
2022-10-10T05:42:52.397Z,9.68
2022-10-10T05:45:19.192Z,8.60
2022-10-10T05:47:45.871Z,9.50
2022-10-10T05:50:23.414Z,9.23
2022-10-10T05:52:50.253Z,8.60
2022-10-10T05:55:17.213Z,7.05
2022-10-10T05:57:43.822Z,9.30
2022-10-10T06:00:10.979Z,8.93
2022-10-10T06:02:37.595Z,8.13
2022-10-10T06:05:04.712Z,7.95
2022-10-10T06:07:52.079Z,7.15
2022-10-10T06:10:17.971Z,7.72
2022-10-10T06:12:44.754Z,7.65
2022-10-10T06:15:11.429Z,8.45
2022-10-10T06:17:38.040Z,7.15
2022-10-10T06:20:04.859Z,7.35
2022-10-10T06:22:31.411Z,7.75
2022-10-10T06:24:58.003Z,6.70
2022-10-10T06:27:24.631Z,7.57
2022-10-10T06:29:51.209Z,7.65
2022-10-10T06:32:17.808Z,6.15
2022-10-10T06:34:44.434Z,5.80
2022-10-10T06:37:12.405Z,6.20
2022-10-10T06:39:39.220Z,5.50
2022-10-10T06:42:06.186Z,4.25
2022-10-10T06:44:32.813Z,4.57
2022-10-10T06:46:59.479Z,4.53
2022-10-10T06:49:26.069Z,4.35
2022-10-10T06:51:53.318Z,4.65
2022-10-10T06:54:19.915Z,4.57
2022-10-10T06:56:46.796Z,4.13
2022-10-10T06:59:13.483Z,4.13
2022-10-10T07:01:40.152Z,4.00
2022-10-10T07:04:06.815Z,4.60
2022-10-10T07:06:34.950Z,4.80
2022-10-10T07:09:01.917Z,4.78
2022-10-10T07:11:29.703Z,5.60
2022-10-10T07:13:56.468Z,4.65
2022-10-10T07:16:23.198Z,3.85
2022-10-10T07:18:49.840Z,3.85
2022-10-10T07:21:16.558Z,4.65
2022-10-10T07:23:43.385Z,3.72
2022-10-10T07:26:12.671Z,4.10
2022-10-10T07:28:39.339Z,4.13
2022-10-10T07:31:09.991Z,3.50
2022-10-10T07:33:38.648Z,4.13
2022-10-10T07:36:05.750Z,3.50
2022-10-10T07:38:32.883Z,4.60
2022-10-10T07:40:59.468Z,4.55
2022-10-10T07:43:26.015Z,4.13
2022-10-10T07:45:52.672Z,3.92
2022-10-10T07:48:19.263Z,3.22
2022-10-10T07:50:45.931Z,3.92
2022-10-10T07:53:12.842Z,3.30
2022-10-10T07:55:43.717Z,3.90
2022-10-10T07:58:11.681Z,3.20
2022-10-10T08:00:40.871Z,4.03
2022-10-10T08:03:12.065Z,4.15
2022-10-10T08:05:43.771Z,3.88
2022-10-10T08:11:31.566Z,3.20
2022-10-10T08:13:58.103Z,3.50
2022-10-10T08:16:24.924Z,3.95
2022-10-10T08:18:51.855Z,3.22
2022-10-10T08:21:21.525Z,2.85
2022-10-10T08:23:48.138Z,3.58
2022-10-10T08:26:16.053Z,4.32
2022-10-10T08:28:42.825Z,4.00
2022-10-10T08:31:11.337Z,3.10
2022-10-10T08:33:38.231Z,5.28
2022-10-10T08:36:08.060Z,5.28
2022-10-10T08:38:34.679Z,3.63
2022-10-10T08:41:01.518Z,3.25
2022-10-10T08:46:13.255Z,5.10
2022-10-10T08:48:39.905Z,3.78
2022-10-10T08:51:09.404Z,3.38
2022-10-10T08:53:41.126Z,2.95
2022-10-10T08:56:08.319Z,3.80
2022-10-10T08:58:37.222Z,3.53
2022-10-10T09:01:28.073Z,2.58
2022-10-10T09:04:00.709Z,4.00
2022-10-10T09:07:34.368Z,3.38
2022-10-10T09:10:32.160Z,2.78
2022-10-10T09:13:41.445Z,2.38
2022-10-10T09:16:28.709Z,2.75
2022-10-10T09:21:49.404Z,2.78
2022-10-10T09:24:20.254Z,2.38
2022-10-10T09:26:52.565Z,3.45
2022-10-10T09:29:42.290Z,2.90
2022-10-10T09:32:20.571Z,3.47
2022-10-10T09:34:50.278Z,3.28
2022-10-10T09:37:45.376Z,3.17
2022-10-10T09:40:24.370Z,3.22
2022-10-10T09:42:51.242Z,3.55
2022-10-10T09:45:38.911Z,3.30
2022-10-10T09:48:05.731Z,4.82
2022-10-10T09:50:32.309Z,3.70
2022-10-10T09:52:58.900Z,3.10
2022-10-10T09:55:28.202Z,2.83
2022-10-10T09:57:56.711Z,2.70
2022-10-10T10:00:27.190Z,3.03
2022-10-10T10:03:04.810Z,4.10
2022-10-10T10:05:31.366Z,3.33
2022-10-10T10:07:58.409Z,3.38
2022-10-10T10:10:27.032Z,4.55
2022-10-10T10:12:59.261Z,3.28
2022-10-10T10:15:28.591Z,3.40
2022-10-10T10:18:21.820Z,3.60
2022-10-10T10:20:50.203Z,4.38
2022-10-10T10:23:48.850Z,4.75
2022-10-10T10:26:20.367Z,3.63
2022-10-10T10:28:47.667Z,3.85
2022-10-10T10:31:19.562Z,3.65
2022-10-10T10:34:14.000Z,3.13
2022-10-10T10:36:49.042Z,3.20
2022-10-10T10:39:55.530Z,3.55
2022-10-10T10:42:47.905Z,2.95
2022-10-10T10:45:17.104Z,3.00
2022-10-10T10:48:09.658Z,3.03
2022-10-10T10:51:01.440Z,3.45
2022-10-10T10:54:08.224Z,3.80
2022-10-10T10:57:06.227Z,2.58
2022-10-10T11:00:26.173Z,2.58
2022-10-10T11:03:38.539Z,2.58
2022-10-10T11:09:45.027Z,4.60
2022-10-10T11:12:33.968Z,5.43
2022-10-10T11:15:05.040Z,2.15
2022-10-10T11:17:40.859Z,2.25
2022-10-10T11:20:30.997Z,2.25
2022-10-10T11:23:09.075Z,3.08
2022-10-10T11:25:43.138Z,2.25
2022-10-10T11:28:29.323Z,2.13
2022-10-10T11:31:01.868Z,2.45
2022-10-10T11:33:33.066Z,2.70
2022-10-10T11:36:03.694Z,2.17
2022-10-10T11:38:40.913Z,2.92
2022-10-10T11:41:36.692Z,1.95
2022-10-10T11:44:11.853Z,2.30
2022-10-10T11:47:01.068Z,2.40
2022-10-10T11:49:46.893Z,2.22
2022-10-10T11:52:33.529Z,2.78
2022-10-10T11:55:26.316Z,2.60
2022-10-10T11:57:55.537Z,2.70
2022-10-10T12:00:22.408Z,2.60
2022-10-10T12:02:49.013Z,3.70
2022-10-10T12:05:22.224Z,2.97
2022-10-10T12:08:04.897Z,2.85
2022-10-10T12:10:35.161Z,3.33
2022-10-10T12:13:27.038Z,3.05
2022-10-10T12:15:54.244Z,3.00
2022-10-10T12:18:43.215Z,2.67
2022-10-10T12:21:12.433Z,3.00
2022-10-10T12:23:40.941Z,3.10
2022-10-10T12:26:17.639Z,3.03
2022-10-10T12:29:04.657Z,3.15
2022-10-10T12:31:34.007Z,1.80
2022-10-10T12:34:04.395Z,2.58
2022-10-10T12:44:45.068Z,3.00
2022-10-10T12:47:35.887Z,2.28
2022-10-10T12:50:23.073Z,3.13
2022-10-10T12:53:06.420Z,2.50
2022-10-10T12:55:40.721Z,3.10
2022-10-10T12:58:17.237Z,3.22
2022-10-10T13:00:51.449Z,3.58
2022-10-10T13:03:32.434Z,3.22
2022-10-10T13:06:04.954Z,3.72
2022-10-10T13:08:31.625Z,2.55
2022-10-10T13:11:06.540Z,3.53
2022-10-10T13:13:33.403Z,3.05
2022-10-10T13:16:07.053Z,3.72
2022-10-10T13:21:50.164Z,3.45
2022-10-10T13:24:18.491Z,3.33
2022-10-10T13:26:47.207Z,3.30
2022-10-10T13:29:34.319Z,3.25
2022-10-10T13:32:07.142Z,4.25
2022-10-10T13:34:36.204Z,3.00
2022-10-10T13:37:03.544Z,3.60
2022-10-10T13:39:31.133Z,3.60
2022-10-10T13:41:57.953Z,2.80
2022-10-10T13:44:29.970Z,3.03
2022-10-10T13:46:56.548Z,4.13
2022-10-10T13:49:26.089Z,3.58
2022-10-10T13:52:01.972Z,2.85
2022-10-10T13:57:20.119Z,2.58
2022-10-10T13:59:50.643Z,3.47
2022-10-10T14:02:18.962Z,3.28
2022-10-10T14:04:49.347Z,4.40
2022-10-10T14:07:21.469Z,5.47
2022-10-10T14:10:08.766Z,4.13
2022-10-10T14:12:39.646Z,3.60
2022-10-10T14:18:20.817Z,3.40
2022-10-10T14:20:47.589Z,3.42
2022-10-10T14:23:14.276Z,2.95
2022-10-10T14:25:41.840Z,2.83
2022-10-10T14:28:15.609Z,2.90
2022-10-10T14:30:42.236Z,2.92
2022-10-10T14:33:13.662Z,2.40
2022-10-10T14:35:40.594Z,2.85
2022-10-10T14:38:07.327Z,2.20
2022-10-10T14:40:34.000Z,2.78
2022-10-10T14:43:00.683Z,2.40
2022-10-10T14:45:27.275Z,2.50
2022-10-10T14:47:54.411Z,2.60
2022-10-10T14:50:24.102Z,2.50
2022-10-10T14:52:50.881Z,2.70
2022-10-10T14:55:17.695Z,2.10
2022-10-10T14:57:44.272Z,3.15
2022-10-10T15:00:14.825Z,2.42
2022-10-10T15:02:45.450Z,2.92
2022-10-10T15:05:13.039Z,3.05
2022-10-10T15:07:39.765Z,2.50
2022-10-10T15:12:53.680Z,3.88
2022-10-10T15:15:20.408Z,3.30
2022-10-10T15:17:47.096Z,3.30
2022-10-10T15:20:13.811Z,2.80
2022-10-10T15:22:40.504Z,3.58
2022-10-10T15:25:07.566Z,2.67
2022-10-10T15:27:34.293Z,3.45
2022-10-10T15:30:01.059Z,3.80
2022-10-10T15:32:27.743Z,3.78
2022-10-10T15:34:54.401Z,3.90
2022-10-10T15:37:23.260Z,4.07
2022-10-10T15:39:49.904Z,5.05
2022-10-10T15:42:22.409Z,9.63
2022-10-10T15:44:49.870Z,4.75
2022-10-10T15:47:17.827Z,3.97
2022-10-10T15:49:44.521Z,4.30
2022-10-10T15:52:11.254Z,6.35
2022-10-10T15:54:37.860Z,3.67
2022-10-10T15:57:04.562Z,3.95
2022-10-10T15:59:31.263Z,4.90
2022-10-10T16:01:57.923Z,6.00
2022-10-10T16:04:25.317Z,7.80
2022-10-10T16:06:59.556Z,4.18
2022-10-10T16:09:39.142Z,4.05
2022-10-10T16:12:05.966Z,5.00
2022-10-10T16:14:32.704Z,4.60
2022-10-10T16:17:00.371Z,5.45
2022-10-10T16:19:26.951Z,7.63
2022-10-10T16:21:53.640Z,5.07
2022-10-10T16:24:20.279Z,6.45
2022-10-10T16:26:46.982Z,4.60
2022-10-10T16:29:14.997Z,5.60
2022-10-10T16:31:42.897Z,7.75
2022-10-10T16:34:10.113Z,5.18
2022-10-10T16:36:37.391Z,5.15
2022-10-10T16:39:04.263Z,5.18
2022-10-10T16:41:48.755Z,4.57
2022-10-10T16:44:16.487Z,4.57
2022-10-10T16:46:43.081Z,5.72
2022-10-10T16:49:09.813Z,6.85
2022-10-10T16:51:36.530Z,6.35
2022-10-10T16:54:03.175Z,7.00
2022-10-10T16:56:30.167Z,7.20
2022-10-10T16:59:00.088Z,5.55
2022-10-10T17:01:26.894Z,5.88
2022-10-10T17:03:53.605Z,6.70
2022-10-10T17:06:21.727Z,6.60
2022-10-10T17:08:49.627Z,4.85
2022-10-10T17:11:17.730Z,5.63
2022-10-10T17:13:44.414Z,5.93
2022-10-10T17:16:53.468Z,5.88
2022-10-10T17:19:00.728Z,5.53
2022-10-10T17:21:27.311Z,5.47
2022-10-10T17:23:53.964Z,6.30
2022-10-10T17:26:22.481Z,6.63
2022-10-10T17:28:50.489Z,5.88
2022-10-10T17:31:17.671Z,5.55
2022-10-10T17:33:51.022Z,5.88
2022-10-10T17:36:21.721Z,5.30
2022-10-10T17:38:48.428Z,5.07
2022-10-10T17:41:16.411Z,6.05
2022-10-10T17:43:43.229Z,5.93
2022-10-10T17:46:36.825Z,5.40
2022-10-10T17:49:04.786Z,5.70
2022-10-10T17:51:31.390Z,5.22
2022-10-10T17:53:59.884Z,7.45
2022-10-10T17:56:26.499Z,6.38
2022-10-10T17:58:53.235Z,6.88
2022-10-10T18:01:20.187Z,5.72
2022-10-10T18:03:48.028Z,6.75
2022-10-10T18:06:18.078Z,7.00
2022-10-10T18:08:47.061Z,7.63
2022-10-10T18:11:14.735Z,7.88
2022-10-10T18:13:41.361Z,6.70
2022-10-10T18:16:09.352Z,7.40
2022-10-10T18:18:36.830Z,7.00
2022-10-10T18:21:04.776Z,7.25
2022-10-10T18:23:31.766Z,6.28
2022-10-10T18:26:00.719Z,7.80
2022-10-10T18:28:30.836Z,7.72
2022-10-10T18:30:57.770Z,7.88
2022-10-10T18:33:24.389Z,6.63
2022-10-10T18:35:51.155Z,6.35
2022-10-10T18:38:17.755Z,6.97
2022-10-10T18:40:44.370Z,9.10
2022-10-10T18:43:11.143Z,8.30
2022-10-10T18:45:37.726Z,7.22
2022-10-10T18:48:04.652Z,6.55
2022-10-10T18:50:31.294Z,7.13
2022-10-10T18:52:57.931Z,7.05
2022-10-10T18:55:30.123Z,7.05
2022-10-10T18:57:57.722Z,6.25
2022-10-10T19:00:25.840Z,6.88
2022-10-10T19:02:53.195Z,8.25
2022-10-10T19:05:20.072Z,6.18
2022-10-10T19:07:46.812Z,6.35
2022-10-10T19:10:13.450Z,7.72
2022-10-10T19:12:43.960Z,6.85
2022-10-10T19:15:14.695Z,6.13
2022-10-10T19:17:41.330Z,7.53
2022-10-10T19:20:08.289Z,7.10
2022-10-10T19:22:34.891Z,6.85
2022-10-10T19:25:02.820Z,7.03
2022-10-10T19:27:29.526Z,7.72
2022-10-10T19:29:56.120Z,7.13
2022-10-10T19:32:22.737Z,8.23
2022-10-10T19:34:49.325Z,7.35
2022-10-10T19:37:16.020Z,7.65
2022-10-10T19:39:42.625Z,7.88
2022-10-10T19:42:09.494Z,6.93
2022-10-10T19:44:36.179Z,6.80
2022-10-10T19:47:02.754Z,7.72
2022-10-10T19:49:30.085Z,6.53
2022-10-10T19:51:56.666Z,7.47
2022-10-10T19:54:23.290Z,7.57
2022-10-10T19:56:50.911Z,8.98
2022-10-10T19:59:17.676Z,7.45
2022-10-10T20:01:44.362Z,8.13
2022-10-10T20:04:11.579Z,7.60
2022-10-10T20:06:41.014Z,8.48
2022-10-10T20:09:10.834Z,9.80
2022-10-10T20:11:38.321Z,8.82
2022-10-10T20:14:04.948Z,8.45
2022-10-10T20:16:31.619Z,7.63
2022-10-10T20:18:58.562Z,8.85
2022-10-10T20:21:29.925Z,8.13
2022-10-10T20:23:58.089Z,8.55
2022-10-10T20:26:26.609Z,8.68
2022-10-10T20:28:53.600Z,9.70
2022-10-10T20:31:23.881Z,8.32
2022-10-10T20:33:52.281Z,8.02
2022-10-10T20:36:18.949Z,8.75
2022-10-10T20:38:50.577Z,7.60
2022-10-10T20:41:17.221Z,8.32
2022-10-10T20:43:43.937Z,8.75
2022-10-10T20:46:11.644Z,8.18
2022-10-10T20:48:38.407Z,8.88
2022-10-10T20:51:06.733Z,9.90
2022-10-10T20:53:34.278Z,9.88
2022-10-10T20:56:06.167Z,7.65
2022-10-10T20:58:34.560Z,8.15
2022-10-10T21:01:11.558Z,7.82
2022-10-10T21:03:38.461Z,7.63
2022-10-10T21:06:08.976Z,7.72
2022-10-10T21:08:36.143Z,8.20
2022-10-10T21:11:05.198Z,8.18
2022-10-10T21:13:33.346Z,7.78
2022-10-10T21:15:59.930Z,8.43
2022-10-10T21:18:26.638Z,7.32
2022-10-10T21:20:59.069Z,8.32
2022-10-10T21:23:25.729Z,7.50
2022-10-10T21:25:52.330Z,9.20
2022-10-10T21:28:19.024Z,7.18
2022-10-10T21:30:48.130Z,7.90
2022-10-10T21:33:14.892Z,8.20
2022-10-10T21:35:41.633Z,8.02
2022-10-10T21:38:08.241Z,7.13
2022-10-10T21:40:35.979Z,8.70
2022-10-10T21:43:02.551Z,7.15
2022-10-10T21:45:29.204Z,8.18
2022-10-10T21:47:55.757Z,9.65
2022-10-10T21:50:22.372Z,7.45
2022-10-10T21:52:48.970Z,7.28
2022-10-10T21:55:15.672Z,7.85
2022-10-10T21:57:42.346Z,7.03
2022-10-10T22:00:10.051Z,7.03
2022-10-10T22:02:39.547Z,7.75
2022-10-10T22:05:06.523Z,7.20
2022-10-10T22:07:33.085Z,7.75
2022-10-10T22:09:59.786Z,8.07
2022-10-10T22:12:26.379Z,7.97
2022-10-10T22:14:52.971Z,7.43
2022-10-10T22:17:19.602Z,6.93
2022-10-10T22:19:46.172Z,8.07
2022-10-10T22:22:12.802Z,6.68
2022-10-10T22:24:39.533Z,7.22
2022-10-10T22:27:06.309Z,8.10
2022-10-10T22:29:32.885Z,7.25
2022-10-10T22:31:59.504Z,6.80
2022-10-10T22:34:26.124Z,6.97
2022-10-10T22:36:53.768Z,6.72
2022-10-10T22:39:20.378Z,7.25
2022-10-10T22:41:47.027Z,7.05
2022-10-10T22:44:14.848Z,8.32
2022-10-10T22:46:42.192Z,6.75
2022-10-10T22:49:08.816Z,7.28
2022-10-10T22:51:35.520Z,6.70
2022-10-10T22:54:02.109Z,6.88
2022-10-10T22:56:28.723Z,7.15
2022-10-10T22:58:55.395Z,7.40
2022-10-10T23:01:24.612Z,7.53
2022-10-10T23:04:09.114Z,6.63
2022-10-10T23:06:36.957Z,6.78
2022-10-10T23:09:03.546Z,7.05
2022-10-10T23:11:30.105Z,6.75
2022-10-10T23:13:56.716Z,8.40
2022-10-10T23:16:23.438Z,7.82
2022-10-10T23:18:50.017Z,7.45
2022-10-10T23:21:16.660Z,7.90
2022-10-10T23:23:43.250Z,6.57
2022-10-10T23:26:09.841Z,6.88
2022-10-10T23:28:36.626Z,7.10
2022-10-10T23:31:05.537Z,6.97
2022-10-10T23:33:35.961Z,6.78
2022-10-10T23:36:07.115Z,7.03
2022-10-10T23:38:34.294Z,7.15
2022-10-10T23:41:00.887Z,6.45
2022-10-10T23:43:27.510Z,6.75
2022-10-10T23:45:54.131Z,7.68
2022-10-10T23:48:20.901Z,6.72
2022-10-10T23:50:47.525Z,6.10
2022-10-10T23:53:14.197Z,5.60
2022-10-10T23:55:40.803Z,5.60
2022-10-10T23:58:07.531Z,7.35
